Time;durP1;ratioP1;P1;durP2;ratioP2;P2;SDS_P1;SDS_P2;PMS_P1;PMS_P2;Temp;Humidity;BMP_temperature;BMP_pressure;BME280_temperature;BME280_humidity;BME280_pressure;Samples;Min_cycle;Max_cycle;Signal;HPM_P1;HPM_P2
2023/11/23 00:01:11;;;;;;;1.97;1.57;;;15.50;99.90;;;15.54;49.64;102138.13;4909158;28;97260;-51
2023/11/23 00:03:37;;;;;;;2.63;1.70;;;15.20;99.90;;;15.61;49.90;102137.88;4913995;28;98317;-49
2023/11/23 00:06:03;;;;;;;2.13;1.47;;;15.20;99.90;;;15.83;49.47;102134.50;4907291;28;97211;-53
2023/11/23 00:08:29;;;;;;;4.87;3.13;;;15.70;99.90;;;15.75;41.56;102132.97;4909326;28;105914;-52
2023/11/23 00:10:55;;;;;;;4.80;2.90;;;15.70;99.90;;;15.74;48.49;102133.88;4907002;28;101821;-51
2023/11/23 00:13:20;;;;;;;3.43;1.50;;;15.50;99.90;;;15.77;49.29;102125.84;4907699;28;97546;-50
2023/11/23 00:15:46;;;;;;;2.47;1.97;;;15.50;99.90;;;15.83;45.58;102130.06;4910833;28;97634;-51
2023/11/23 00:18:13;;;;;;;3.40;1.97;;;15.70;99.90;;;15.84;43.62;102125.59;4908285;28;97543;-48
2023/11/23 00:20:39;;;;;;;4.87;2.83;;;15.70;99.90;;;15.77;41.71;102112.53;4908514;28;99323;-57
2023/11/23 00:23:05;;;;;;;3.80;2.30;;;15.70;99.90;;;15.65;48.59;102110.28;4911166;28;109904;-51
2023/11/23 00:25:31;;;;;;;2.50;1.77;;;15.30;99.90;;;15.44;49.31;102106.50;4900981;28;106268;-49
2023/11/23 00:27:56;;;;;;;2.27;1.70;;;14.90;99.90;;;15.59;50.03;102099.81;4884147;28;97440;-52
2023/11/23 00:30:24;;;;;;;1.80;1.50;;;15.20;99.90;;;15.72;49.41;102085.19;4908704;28;97324;-55
2023/11/23 00:32:50;;;;;;;5.80;2.67;;;15.50;99.90;;;15.56;42.43;102093.72;4905013;28;98584;-54
2023/11/23 00:35:16;;;;;;;3.10;1.97;;;15.30;99.90;;;15.47;49.69;102086.91;4895079;28;99523;-48
2023/11/23 00:37:44;;;;;;;4.17;2.30;;;15.00;99.90;;;15.31;48.83;102088.34;4910745;28;97617;-50
2023/11/23 00:40:12;;;;;;;3.60;2.07;;;14.80;99.90;;;15.35;50.73;102088.22;4911554;28;98956;-52
2023/11/23 00:42:38;;;;;;;5.10;2.43;;;14.80;99.90;;;15.17;46.16;102092.31;4893014;28;102401;-49
2023/11/23 00:45:05;;;;;;;3.80;1.57;;;14.60;99.90;;;15.18;50.88;102079.88;4905113;28;97492;-50
2023/11/23 00:47:31;;;;;;;2.80;1.97;;;14.60;99.90;;;15.11;50.54;102081.88;4907911;28;97414;-53
2023/11/23 00:49:57;;;;;;;5.57;2.63;;;14.50;99.90;;;15.16;49.88;102079.94;4905262;28;98597;-49
2023/11/23 00:52:23;;;;;;;5.20;2.27;;;14.60;99.90;;;15.01;48.40;102075.13;4898533;28;106104;-53
2023/11/23 00:54:48;;;;;;;3.07;1.93;;;14.40;99.90;;;15.08;51.08;102070.50;4900521;28;98588;-50
2023/11/23 00:57:14;;;;;;;3.63;2.07;;;14.40;99.90;;;15.12;50.23;102067.69;4901241;28;97075;-51
2023/11/23 00:59:40;;;;;;;2.67;1.47;;;14.60;99.90;;;15.22;50.88;102062.06;4904916;28;97769;-55
2023/11/23 01:02:06;;;;;;;2.30;1.40;;;14.80;99.90;;;15.30;51.06;102065.34;4907333;28;103373;-53
2023/11/23 01:04:32;;;;;;;4.10;2.53;;;14.90;99.90;;;15.17;47.65;102064.84;4904401;28;98704;-53
2023/11/23 01:06:58;;;;;;;3.23;1.80;;;14.70;99.90;;;15.03;49.11;102061.78;4907895;28;98037;-50
2023/11/23 01:09:24;;;;;;;2.40;1.60;;;14.40;99.90;;;15.00;50.44;102056.56;4904878;28;97534;-52
2023/11/23 01:11:51;;;;;;;3.27;2.07;;;14.30;99.90;;;14.96;48.51;102063.78;4904372;28;97711;-51
2023/11/23 01:14:17;;;;;;;4.77;2.63;;;14.30;99.90;;;14.99;48.90;102066.31;4904695;28;98601;-50
2023/11/23 01:16:42;;;;;;;3.47;1.97;;;14.30;99.90;;;15.05;51.12;102058.19;4903559;28;98198;-57
2023/11/23 01:19:08;;;;;;;2.63;1.70;;;14.40;99.90;;;14.96;51.04;102055.81;4904670;28;97657;-52
2023/11/23 01:21:35;;;;;;;3.30;2.03;;;14.30;99.90;;;15.00;51.17;102054.78;4903413;28;98578;-53
2023/11/23 01:24:01;;;;;;;1.53;1.17;;;14.30;99.90;;;15.03;51.76;102051.16;4903434;28;98098;-53
2023/11/23 01:26:27;;;;;;;2.77;1.90;;;14.40;99.90;;;15.05;51.47;102050.22;4906725;28;97118;-52
2023/11/23 01:28:53;;;;;;;2.87;1.87;;;14.40;99.90;;;15.06;50.94;102051.94;4911077;28;98723;-57
2023/11/23 01:31:19;;;;;;;3.60;1.73;;;14.40;99.90;;;15.03;nan;102054.66;4905289;28;110388;-53
2023/11/23 01:33:44;;;;;;;3.13;2.00;;;14.40;99.90;;;15.09;51.21;102057.16;4889080;28;97587;-53
2023/11/23 01:36:10;;;;;;;1.80;1.50;;;14.50;99.90;;;15.05;51.43;102050.22;4909542;28;98130;-58
2023/11/23 01:38:36;;;;;;;3.27;1.70;;;14.40;99.90;;;14.99;51.80;102049.50;4895581;28;103182;-52
2023/11/23 01:41:03;;;;;;;4.23;2.57;;;14.30;99.90;;;14.86;50.29;102057.00;4910923;28;97512;-52
2023/11/23 01:43:31;;;;;;;3.60;1.67;;;14.20;99.90;;;15.02;52.20;102055.59;4904926;28;97505;-52
2023/11/23 01:45:57;;;;;;;3.10;1.73;;;14.40;99.90;;;15.09;51.78;102057.16;4911357;28;97580;-54
2023/11/23 01:48:24;;;;;;;4.03;1.80;;;14.50;99.90;;;15.26;50.96;102050.41;4907682;28;98829;-54
2023/11/23 01:50:52;;;;;;;3.30;1.87;;;14.90;99.90;;;15.36;50.82;102051.84;4890807;28;98228;-49
2023/11/23 01:53:18;;;;;;;3.33;2.00;;;15.00;99.90;;;15.24;50.14;102050.47;4904958;28;98470;-48
2023/11/23 01:55:44;;;;;;;3.03;1.83;;;14.80;99.90;;;15.24;50.47;102055.78;4905686;28;97631;-51
2023/11/23 01:58:14;;;;;;;1.93;1.67;;;14.70;99.90;;;15.31;51.55;102056.44;4889928;28;97003;-53
2023/11/23 02:00:40;;;;;;;2.83;1.73;;;14.80;99.90;;;15.37;51.17;102057.13;4887833;28;101054;-53
2023/11/23 02:03:07;;;;;;;2.00;1.23;;;14.90;99.90;;;15.48;51.29;102059.41;4887221;28;97552;-52
2023/11/23 02:05:33;;;;;;;2.93;1.43;;;15.10;99.90;;;15.66;50.76;102058.81;4917620;28;106555;-51
2023/11/23 02:07:59;;;;;;;1.97;1.30;;;15.50;99.90;;;15.81;50.36;102056.53;4925173;28;123325;-51
2023/11/23 02:10:25;;;;;;;1.83;1.50;;;15.70;99.90;;;15.92;49.92;102060.56;4925522;28;115074;-51
2023/11/23 02:12:52;;;;;;;2.57;1.40;;;15.90;99.90;;;16.01;49.90;102059.34;4926519;28;99798;-49
2023/11/23 02:15:18;;;;;;;2.77;1.43;;;16.00;99.90;;;16.10;49.54;102056.38;4920921;28;98345;-48
2023/11/23 02:17:44;;;;;;;1.67;1.43;;;16.10;99.90;;;16.17;48.95;102063.19;4925222;28;98038;-51
2023/11/23 02:20:11;;;;;;;2.47;1.73;;;16.20;99.90;;;16.17;49.41;102049.88;4928205;28;97081;-49
2023/11/23 02:23:05;;;;;;;2.80;1.73;;;16.20;99.90;;;16.22;49.09;102047.94;4924178;28;97421;-51
2023/11/23 02:25:31;;;;;;;2.20;1.47;;;16.10;99.90;;;16.30;48.90;102053.81;4908376;28;98680;-51
2023/11/23 02:27:57;;;;;;;1.83;1.53;;;16.30;99.90;;;16.42;48.49;102054.28;4924337;28;97583;-48
2023/11/23 02:30:23;;;;;;;1.70;1.20;;;16.50;99.90;;;16.50;48.68;102046.88;4924683;28;101250;-49
2023/11/23 02:32:50;;;;;;;2.57;1.47;;;16.60;99.90;;;16.54;48.40;102051.16;4922898;28;97100;-52
2023/11/23 02:35:19;;;;;;;1.60;1.50;;;16.70;99.90;;;16.62;48.32;102046.38;4922428;28;97552;-51
2023/11/23 02:37:45;;;;;;;2.60;1.50;;;16.80;99.90;;;16.66;47.86;102045.38;4923273;28;96875;-50
2023/11/23 02:40:12;;;;;;;1.80;1.43;;;16.80;99.90;;;16.71;47.95;102034.56;4927099;28;98495;-50
2023/11/23 02:42:41;;;;;;;3.37;1.43;;;16.90;99.90;;;16.72;47.73;102042.47;4916589;28;97327;-51
2023/11/23 02:45:07;;;;;;;2.37;1.70;;;16.80;99.90;;;16.72;47.68;102047.81;4924808;28;97589;-51
2023/11/23 02:47:34;;;;;;;2.30;1.30;;;16.90;99.90;;;16.74;47.61;102045.94;4922077;28;98586;-48
2023/11/23 02:50:00;;;;;;;3.90;1.90;;;16.90;99.90;;;16.69;45.86;102042.59;4926887;28;97758;-51
2023/11/23 02:52:25;;;;;;;1.73;1.37;;;16.80;99.90;;;16.60;48.06;102042.91;4926202;28;97096;-52
2023/11/23 02:54:51;;;;;;;2.83;1.33;;;16.60;99.90;;;16.43;47.80;102032.91;4925837;28;97648;-50
2023/11/23 02:57:17;;;;;;;3.07;1.47;;;16.20;99.90;;;16.30;48.82;102035.19;4926082;28;97790;-52
2023/11/23 02:59:43;;;;;;;3.13;1.53;;;15.90;99.90;;;16.27;49.13;102034.44;4927917;28;105603;-52
2023/11/23 03:02:09;;;;;;;2.20;1.67;;;15.90;99.90;;;16.21;49.16;102032.00;4930904;28;97553;-51
2023/11/23 03:04:34;;;;;;;1.37;1.20;;;15.90;99.90;;;16.16;49.33;102032.16;4929509;28;98880;-48
2023/11/23 03:07:00;;;;;;;2.67;1.70;;;15.90;99.90;;;16.08;49.21;102028.94;4931450;28;111791;-53
2023/11/23 03:09:26;;;;;;;1.67;1.23;;;15.70;99.90;;;16.09;49.69;102028.00;4925529;28;97222;-51
2023/11/23 03:11:52;;;;;;;2.57;1.67;;;15.80;99.90;;;16.12;49.71;102021.69;4928895;28;110106;-50
2023/11/23 03:14:17;;;;;;;2.13;1.40;;;15.90;99.90;;;16.15;49.46;102030.44;4928095;28;96722;-51
2023/11/23 03:16:44;;;;;;;2.27;1.63;;;15.90;99.90;;;16.24;49.52;102030.09;4928969;28;99628;-48
2023/11/23 03:19:10;;;;;;;1.70;1.37;;;16.10;99.90;;;16.18;48.98;102022.31;4928543;28;101824;-50
2023/11/23 03:21:36;;;;;;;2.03;1.30;;;16.00;99.90;;;16.17;49.20;102023.25;4912617;28;97364;-51
2023/11/23 03:24:02;;;;;;;3.27;1.93;;;16.00;99.90;;;16.14;49.60;102014.53;4929092;28;97238;-50
2023/11/23 03:26:27;;;;;;;2.93;1.33;;;15.90;99.90;;;16.18;49.73;102013.47;4927211;28;97372;-50
2023/11/23 03:28:53;;;;;;;2.60;1.80;;;16.00;99.90;;;16.16;49.51;102023.31;4926337;28;100893;-55
2023/11/23 03:31:20;;;;;;;2.23;1.53;;;16.00;99.90;;;16.23;49.35;102020.38;4923823;28;96916;-49
2023/11/23 03:33:46;;;;;;;2.87;1.77;;;16.10;99.90;;;16.17;49.38;102012.59;4925884;28;97453;-49
2023/11/23 03:36:12;;;;;;;3.03;1.60;;;16.00;99.90;;;16.06;49.78;102014.81;4927632;28;103656;-53
2023/11/23 03:38:38;;;;;;;2.43;1.40;;;15.80;99.90;;;16.02;49.32;102013.16;4923817;28;116105;-52
2023/11/23 03:41:04;;;;;;;2.27;1.17;;;15.70;99.90;;;16.03;50.22;101998.94;4929602;28;97345;-48
2023/11/23 03:43:29;;;;;;;2.67;1.40;;;15.70;99.90;;;16.04;49.75;102000.69;4926988;28;97941;-51
2023/11/23 03:45:55;;;;;;;2.17;1.57;;;15.80;99.90;;;16.03;50.17;101996.28;4928610;28;97700;-49
2023/11/23 03:48:22;;;;;;;1.53;1.40;;;15.80;99.90;;;15.99;50.24;101989.34;4927667;28;97183;-48
2023/11/23 03:50:48;;;;;;;1.60;1.50;;;15.60;99.90;;;16.11;49.91;101991.56;4910827;28;97307;-52
2023/11/23 03:53:14;;;;;;;1.93;1.40;;;15.90;99.90;;;16.22;49.53;101984.03;4929856;28;97302;-54
2023/11/23 03:55:39;;;;;;;1.90;1.30;;;16.10;99.90;;;16.29;49.58;101984.66;4928581;28;97664;-48
2023/11/23 03:58:05;;;;;;;2.43;1.50;;;16.20;99.90;;;16.39;49.31;101985.19;4925794;28;111988;-50
2023/11/23 04:00:31;;;;;;;2.67;1.27;;;16.40;99.90;;;16.41;49.12;101983.31;4921737;28;98878;-49
2023/11/23 04:02:58;;;;;;;2.20;1.20;;;16.40;99.90;;;16.47;49.21;101973.28;4925335;28;97034;-50
2023/11/23 04:05:25;;;;;;;2.40;1.60;;;16.50;99.90;;;16.52;48.79;101983.78;4926419;28;98600;-48
2023/11/23 04:07:51;;;;;;;3.10;1.37;;;16.60;99.90;;;16.51;48.96;101980.25;4927758;28;98453;-48
2023/11/23 04:10:17;;;;;;;2.10;1.20;;;16.50;99.90;;;16.50;49.13;101977.63;4928117;28;103122;-49
2023/11/23 04:12:43;;;;;;;1.60;1.40;;;16.50;99.90;;;16.36;49.16;101973.72;4911419;28;103491;-48
2023/11/23 04:15:10;;;;;;;2.10;1.40;;;16.20;99.90;;;16.31;49.27;101967.69;4922464;28;102263;-49
2023/11/23 04:17:36;;;;;;;1.63;1.07;;;16.10;99.90;;;16.25;49.58;101967.94;4926700;28;96944;-51
2023/11/23 04:20:04;;;;;;;2.57;1.77;;;16.00;99.90;;;16.20;49.25;101959.28;4925472;28;97406;-50
2023/11/23 04:22:30;;;;;;;2.47;1.67;;;15.90;99.90;;;16.05;49.83;101974.00;4927435;28;97265;-49
2023/11/23 04:24:56;;;;;;;1.90;1.60;;;15.70;99.90;;;16.05;50.06;101965.16;4924978;28;98872;-51
2023/11/23 04:27:23;;;;;;;6.93;3.50;;;15.70;99.90;;;15.87;48.29;101961.38;4925077;28;98767;-49
2023/11/23 04:29:50;;;;;;;4.10;2.03;;;15.40;99.90;;;15.67;50.31;101964.78;4922100;28;96978;-50
2023/11/23 04:32:16;;;;;;;3.07;1.73;;;15.10;99.90;;;15.59;51.04;101965.94;4924925;28;97413;-50
2023/11/23 04:34:42;;;;;;;2.70;1.77;;;14.90;99.90;;;15.55;50.73;101961.66;4924435;28;97708;-54
2023/11/23 04:37:08;;;;;;;3.30;1.93;;;14.90;99.90;;;15.40;51.04;101960.41;4927192;28;97504;-51
2023/11/23 04:39:34;;;;;;;4.03;2.27;;;14.70;99.90;;;15.39;52.12;101958.69;4923760;28;98074;-54
2023/11/23 04:42:00;;;;;;;3.10;2.10;;;14.70;99.90;;;15.18;52.32;101961.16;4926624;28;97320;-50
2023/11/23 04:44:25;;;;;;;3.93;1.83;;;14.50;99.90;;;15.09;52.79;101958.81;4926686;28;103144;-51
2023/11/23 04:46:52;;;;;;;4.50;2.50;;;14.40;99.90;;;14.95;52.72;101963.72;4927265;28;98092;-49
2023/11/23 04:49:18;;;;;;;1.97;1.63;;;14.30;99.90;;;14.95;53.44;101953.09;4920022;28;97946;-48
2023/11/23 04:51:43;;;;;;;8.73;4.77;;;14.30;99.90;;;14.85;52.85;101956.97;4928271;28;97355;-50
2023/11/23 04:54:09;;;;;;;3.93;1.93;;;14.30;99.90;;;15.08;53.30;101953.56;4923445;28;116189;-50
2023/11/23 04:56:36;;;;;;;12.00;4.93;;;14.50;99.90;;;15.00;53.03;101948.50;4926617;28;99056;-48
2023/11/23 04:59:05;;;;;;;8.87;4.43;;;14.60;99.90;;;15.10;52.93;101946.41;4923088;28;97594;-52
2023/11/23 05:01:31;;;;;;;8.30;3.63;;;14.70;99.90;;;15.05;53.41;101943.91;4925440;28;98041;-49
2023/11/23 05:03:58;;;;;;;7.43;4.23;;;14.60;99.90;;;14.89;54.04;101947.97;4925179;28;97596;-48
2023/11/23 05:06:25;;;;;;;7.40;4.83;;;14.50;99.90;;;14.73;54.49;101946.75;4925240;28;117932;-57
2023/11/23 05:08:51;;;;;;;7.17;4.00;;;14.40;99.90;;;14.89;54.22;101937.34;4906356;28;97047;-49
2023/11/23 05:11:16;;;;;;;3.20;2.07;;;14.40;99.90;;;15.03;53.62;101929.78;4927223;28;97260;-50
2023/11/23 05:13:42;;;;;;;8.10;4.87;;;14.70;99.90;;;15.11;53.14;101930.41;4902290;28;103524;-55
2023/11/23 05:16:08;;;;;;;8.07;3.47;;;14.80;99.90;;;15.17;53.09;101938.16;4910778;28;105649;-52
2023/11/23 05:18:34;;;;;;;10.00;5.17;;;14.90;99.90;;;15.14;53.59;101932.94;4922865;28;97493;-49
2023/11/23 05:21:00;;;;;;;7.90;4.63;;;14.90;99.90;;;15.22;53.31;101931.81;4925686;28;100005;-48
2023/11/23 05:23:26;;;;;;;7.73;4.57;;;14.90;99.90;;;15.25;52.91;101939.69;4922098;28;99281;-52
2023/11/23 05:25:53;;;;;;;6.73;3.97;;;15.00;99.90;;;15.31;52.91;101934.13;5035327;22;98245;-52
2023/11/23 05:28:19;;;;;;;9.37;5.10;;;15.00;99.90;;;15.29;52.31;101936.84;4960489;28;99193;-52
2023/11/23 05:30:45;;;;;;;8.97;5.10;;;15.10;99.90;;;15.37;52.97;101931.28;4956336;28;97601;-49
2023/11/23 05:33:12;;;;;;;9.93;6.13;;;15.10;99.90;;;15.41;51.55;101927.59;4958897;28;101846;-49
2023/11/23 05:35:37;;;;;;;9.10;4.27;;;15.20;99.90;;;15.31;53.01;101934.13;4951814;28;99843;-52
2023/11/23 05:38:03;;;;;;;8.53;5.07;;;15.10;99.90;;;15.14;53.75;101943.56;4943760;28;97448;-52
2023/11/23 05:40:29;;;;;;;7.60;5.00;;;14.80;99.90;;;15.08;53.80;101938.47;4952892;28;97478;-51
2023/11/23 05:42:55;;;;;;;11.97;5.60;;;14.80;99.90;;;15.07;53.89;101931.44;4944096;28;102596;-51
2023/11/23 05:45:21;;;;;;;9.47;5.33;;;14.80;99.90;;;15.03;53.88;101940.41;4949207;28;97086;-49
2023/11/23 05:47:47;;;;;;;10.37;5.53;;;14.70;99.90;;;15.12;53.99;101929.47;4942889;28;97232;-53
2023/11/23 05:50:17;;;;;;;6.87;3.63;;;14.80;99.90;;;14.89;54.43;101938.22;4949013;28;97964;-59
2023/11/23 05:52:43;;;;;;;5.37;3.20;;;14.60;99.90;;;15.05;54.19;101943.91;4942017;28;103234;-52
2023/11/23 05:55:09;;;;;;;9.13;4.33;;;14.70;99.90;;;15.12;53.95;101939.25;4948170;28;97519;-48
2023/11/23 05:57:34;;;;;;;5.43;3.23;;;14.80;99.90;;;15.22;53.59;101938.00;4946360;28;102109;-48
2023/11/23 06:00:02;;;;;;;8.53;4.87;;;14.90;99.90;;;15.33;53.26;101948.25;4940791;28;99243;-51
2023/11/23 06:02:28;;;;;;;7.70;4.53;;;15.10;99.90;;;15.28;53.81;101956.38;4947802;28;97527;-53
2023/11/23 06:04:54;;;;;;;8.80;4.93;;;15.00;99.90;;;15.25;53.64;101950.31;4947421;28;99237;-52
2023/11/23 06:07:20;;;;;;;8.70;5.53;;;15.00;99.90;;;15.13;54.12;101947.16;4944406;28;98476;-48
2023/11/23 06:09:46;;;;;;;9.73;5.87;;;14.80;99.90;;;14.86;55.29;101937.44;4957254;28;100599;-50
2023/11/23 06:12:11;;;;;;;9.33;5.17;;;14.60;99.90;;;15.14;54.23;101938.25;4951409;28;97573;-52
2023/11/23 06:14:37;;;;;;;9.87;4.43;;;14.80;99.90;;;15.22;54.01;101937.13;4939482;28;98389;-51
2023/11/23 06:17:06;;;;;;;9.97;5.17;;;15.00;99.90;;;15.26;53.33;101944.06;4947348;28;96949;-49
2023/11/23 06:19:32;;;;;;;9.23;4.97;;;15.10;99.90;;;15.09;54.66;101944.66;4945165;28;99263;-52
2023/11/23 06:21:58;;;;;;;10.30;5.10;;;14.90;99.90;;;15.17;53.15;101940.81;4943794;28;100447;-50
2023/11/23 06:24:24;;;;;;;10.20;5.70;;;15.00;99.90;;;15.05;54.50;101927.97;4934471;28;97220;-49
2023/11/23 06:26:52;;;;;;;8.23;4.60;;;15.00;99.90;;;15.21;54.26;101930.97;4947913;28;99306;-52
2023/11/23 06:29:18;;;;;;;8.03;4.50;;;15.00;99.90;;;15.28;54.21;101918.31;4949430;28;97544;-53
2023/11/23 06:31:44;;;;;;;11.13;5.90;;;15.10;99.90;;;15.37;52.65;101923.31;4912417;28;97713;-54
2023/11/23 06:34:10;;;;;;;7.43;4.27;;;15.20;99.90;;;15.39;53.72;101910.81;4951218;28;102782;-50
2023/11/23 06:36:38;;;;;;;5.47;3.53;;;15.20;99.90;;;15.49;53.64;101906.91;4952423;28;97039;-52
2023/11/23 06:39:04;;;;;;;9.20;5.73;;;15.30;99.90;;;15.53;53.08;101908.53;4945552;28;97139;-50
2023/11/23 06:41:30;;;;;;;8.83;4.67;;;15.50;99.90;;;15.36;53.44;101911.81;4948544;28;97619;-51
2023/11/23 06:43:56;;;;;;;10.03;5.70;;;15.30;99.90;;;15.24;54.10;101922.88;4932776;28;99461;-51
2023/11/23 06:46:22;;;;;;;8.90;5.03;;;15.00;99.90;;;15.31;53.54;101915.53;4950923;28;96937;-50
2023/11/23 06:48:48;;;;;;;8.80;4.70;;;15.10;99.90;;;15.35;53.42;101914.53;4945160;28;96909;-50
2023/11/23 06:51:14;;;;;;;8.50;4.67;;;15.20;99.90;;;15.51;53.70;101910.38;4939823;28;97587;-55
2023/11/23 06:53:49;;;;;;;7.90;4.80;;;15.30;99.90;;;15.55;53.34;101914.66;4943139;28;115563;-49
2023/11/23 06:56:16;;;;;;;8.77;5.13;;;15.40;99.90;;;15.56;52.37;101908.41;4947448;28;97389;-53
2023/11/23 06:58:46;;;;;;;9.03;5.07;;;15.50;99.90;;;15.54;52.82;101909.41;4945151;28;98407;-52
2023/11/23 07:01:12;;;;;;;11.63;5.37;;;15.50;99.90;;;15.09;55.51;101916.31;4943345;28;100198;-52
2023/11/23 07:03:38;;;;;;;10.90;5.67;;;14.90;99.90;;;15.04;55.33;101915.56;4927894;28;104028;-53
2023/11/23 07:06:05;;;;;;;11.30;5.60;;;14.70;99.90;;;15.02;55.67;101904.13;4942765;28;97612;-52
2023/11/23 07:08:37;;;;;;;8.63;5.20;;;14.80;99.90;;;14.79;56.77;101898.75;4948779;28;98002;-48
2023/11/23 07:11:04;;;;;;;8.10;4.90;;;14.50;99.90;;;14.88;55.69;101899.28;4943002;28;97813;-52
2023/11/23 07:13:31;;;;;;;9.43;5.53;;;14.50;99.90;;;14.95;55.54;101899.97;4942995;28;97530;-50
2023/11/23 07:16:04;;;;;;;7.50;4.23;;;14.60;99.90;;;14.97;55.69;101903.44;4939881;28;97382;-52
2023/11/23 07:18:31;;;;;;;10.13;5.57;;;14.70;99.90;;;14.81;56.11;101907.53;4942401;28;98773;-49
2023/11/23 07:20:57;;;;;;;8.47;5.10;;;14.50;99.90;;;14.72;57.06;101902.50;4952774;28;105062;-48
2023/11/23 07:23:23;;;;;;;7.70;4.53;;;14.50;99.90;;;14.88;55.84;101893.09;4932528;28;101339;-52
2023/11/23 07:25:49;;;;;;;5.10;3.43;;;14.60;99.90;;;15.06;55.19;101892.50;4950762;28;97069;-48
2023/11/23 07:28:16;;;;;;;9.73;5.40;;;14.90;99.90;;;14.82;56.48;101893.31;4947266;28;99137;-52
2023/11/23 07:30:42;;;;;;;12.00;5.53;;;14.80;99.90;;;14.99;55.39;101898.94;4933217;28;101834;-48
2023/11/23 07:33:10;;;;;;;6.97;4.70;;;14.80;99.90;;;15.11;55.27;101895.84;4939483;28;100066;-51
2023/11/23 07:35:39;;;;;;;7.03;4.77;;;14.90;99.90;;;15.14;54.99;101890.41;4945875;28;97281;-53
2023/11/23 07:38:05;;;;;;;6.60;3.90;;;15.00;99.90;;;15.25;54.76;101892.72;4938272;28;97643;-52
2023/11/23 07:40:31;;;;;;;9.00;4.90;;;15.20;99.90;;;15.18;55.15;101892.03;4947888;28;97570;-48
2023/11/23 07:42:58;;;;;;;8.47;4.17;;;15.10;99.90;;;15.39;54.28;101894.88;4938007;28;101806;-52
2023/11/23 07:45:24;;;;;;;6.47;3.60;;;15.30;99.90;;;15.41;54.33;101903.66;4942708;28;97229;-51
2023/11/23 07:47:50;;;;;;;9.23;4.80;;;15.40;99.90;;;15.56;53.94;101896.91;4947616;28;97565;-48
2023/11/23 07:50:16;;;;;;;7.50;4.97;;;15.50;99.90;;;15.53;53.94;101892.56;4944257;28;97393;-54
2023/11/23 07:52:46;;;;;;;7.67;4.30;;;15.50;99.90;;;15.52;54.07;101890.84;4945015;28;97124;-50
2023/11/23 07:55:15;;;;;;;8.37;4.60;;;15.50;99.90;;;15.39;54.67;101898.41;4944004;28;97877;-52
2023/11/23 07:57:43;;;;;;;4.77;2.70;;;15.30;99.90;;;15.41;54.54;101887.69;4943608;28;96967;-49
2023/11/23 08:00:09;;;;;;;7.33;4.53;;;15.20;99.90;;;15.41;54.37;101890.38;4945701;28;100365;-49
2023/11/23 08:02:35;;;;;;;7.00;4.40;;;15.30;99.90;;;15.20;55.44;101883.16;4947894;28;97611;-53
2023/11/23 08:05:02;;;;;;;9.97;4.97;;;15.10;99.90;;;15.21;55.01;101879.59;4947620;28;98130;-49
2023/11/23 08:07:28;;;;;;;4.33;2.97;;;15.00;99.90;;;15.10;55.39;101878.16;4944959;28;104888;-49
2023/11/23 08:09:55;;;;;;;10.17;4.87;;;14.90;99.90;;;15.24;55.43;101872.38;4949411;28;97923;-49
2023/11/23 08:12:20;;;;;;;8.43;4.67;;;15.10;99.90;;;15.23;55.17;101870.63;4953448;28;101137;-52
2023/11/23 08:14:46;;;;;;;14.77;5.17;;;15.10;99.90;;;15.32;55.05;101872.06;4941549;28;96951;-54
2023/11/23 08:17:13;;;;;;;7.97;5.07;;;15.30;99.90;;;15.41;54.54;101869.97;4940573;28;96983;-50
2023/11/23 08:19:39;;;;;;;10.20;5.57;;;15.40;99.90;;;15.50;54.03;101863.44;4940172;28;98291;-50
2023/11/23 08:22:08;;;;;;;10.97;4.73;;;15.40;99.90;;;15.57;54.05;101867.59;4939159;28;99664;-52
2023/11/23 08:24:34;;;;;;;7.83;5.07;;;15.50;99.90;;;15.49;54.88;101864.38;4944611;28;97429;-49
2023/11/23 08:27:01;;;;;;;7.87;4.70;;;15.50;99.90;;;15.55;54.06;101869.44;4949016;28;97310;-52
2023/11/23 08:29:30;;;;;;;7.50;3.80;;;15.50;99.90;;;15.57;54.35;101864.94;4921931;28;98647;-49
2023/11/23 08:31:57;;;;;;;6.37;3.37;;;15.50;99.90;;;15.64;53.98;101869.16;4946216;28;97602;-50
2023/11/23 08:34:23;;;;;;;10.63;5.50;;;15.60;99.90;;;15.57;54.13;101880.91;4946327;28;96860;-52
2023/11/23 08:36:49;;;;;;;7.07;4.50;;;15.60;99.90;;;15.47;55.02;101876.84;4944586;28;103623;-51
2023/11/23 08:39:15;;;;;;;8.47;4.10;;;15.40;99.90;;;15.52;54.30;101874.91;4935396;28;98709;-52
2023/11/23 08:41:42;;;;;;;8.70;4.63;;;15.40;99.90;;;15.51;54.08;101877.59;4933437;28;97186;-50
2023/11/23 08:44:08;;;;;;;6.27;3.87;;;15.40;99.90;;;15.36;55.02;101876.38;4940003;28;96790;-52
2023/11/23 08:46:35;;;;;;;7.53;4.73;;;15.30;99.90;;;15.38;54.87;101871.88;4948764;28;99752;-52
2023/11/23 08:49:01;;;;;;;7.97;4.63;;;15.30;99.90;;;15.46;54.72;101865.31;4923467;28;97470;-50
2023/11/23 08:51:28;;;;;;;7.30;4.30;;;15.50;99.90;;;15.51;54.38;101862.53;4943625;28;97188;-52
2023/11/23 08:53:55;;;;;;;9.03;4.90;;;15.50;99.90;;;15.48;54.56;101862.63;4938940;28;97648;-52
2023/11/23 08:56:21;;;;;;;8.57;4.87;;;15.50;99.90;;;15.44;54.63;101856.53;4915644;28;99878;-53
2023/11/23 08:58:47;;;;;;;9.70;4.57;;;15.50;99.90;;;15.51;54.39;101854.53;4916025;28;99336;-53
2023/11/23 09:01:12;;;;;;;8.10;4.77;;;15.50;99.90;;;15.47;54.83;101858.22;4918861;28;97336;-48
2023/11/23 09:03:38;;;;;;;6.60;4.80;;;15.50;99.90;;;15.43;55.24;101851.28;4918564;28;96914;-51
2023/11/23 09:06:04;;;;;;;8.37;4.23;;;15.40;99.90;;;15.46;54.44;101854.69;4916397;28;100519;-50
2023/11/23 09:08:31;;;;;;;7.47;4.47;;;15.50;99.90;;;15.30;55.71;101857.97;4920097;28;97623;-50
2023/11/23 09:10:57;;;;;;;7.83;4.93;;;15.20;99.90;;;15.30;55.39;101858.84;4920794;28;97705;-48
2023/11/23 09:13:25;;;;;;;12.37;5.20;;;15.20;99.90;;;15.44;54.56;101861.00;4921305;28;98295;-51
2023/11/23 09:15:55;;;;;;;8.13;4.23;;;15.40;99.90;;;15.47;54.80;101861.75;4918500;28;98150;-52
2023/11/23 09:18:22;;;;;;;8.83;4.93;;;15.50;99.90;;;15.43;54.83;101851.28;4903557;28;102300;-49
2023/11/23 09:20:50;;;;;;;10.03;5.57;;;15.40;99.90;;;15.31;55.49;101859.72;4916348;28;97449;-50
2023/11/23 09:23:17;;;;;;;6.87;4.03;;;15.30;99.90;;;15.26;55.81;101854.56;4917201;28;98899;-48
2023/11/23 09:25:44;;;;;;;8.77;4.87;;;15.30;99.90;;;15.36;55.58;101849.78;4919380;28;98082;-51
2023/11/23 09:28:11;;;;;;;7.57;4.57;;;15.40;99.90;;;15.34;55.27;101849.00;4916431;28;100591;-52
2023/11/23 09:30:37;;;;;;;8.27;4.93;;;15.30;99.90;;;15.50;54.40;101855.47;4916450;28;97476;-48
2023/11/23 09:33:03;;;;;;;8.23;4.30;;;15.50;99.90;;;15.64;54.31;101847.88;4917416;28;97694;-52
2023/11/23 09:35:29;;;;;;;5.20;3.70;;;15.70;99.90;;;15.72;54.31;101850.22;4918239;28;97513;-53
2023/11/23 09:37:57;;;;;;;9.93;4.80;;;15.80;99.90;;;15.80;53.22;101868.56;4918225;28;97300;-53
2023/11/23 09:40:24;;;;;;;11.90;4.83;;;15.90;99.90;;;15.65;55.05;101857.59;4913975;28;101329;-50
2023/11/23 09:42:51;;;;;;;4.63;3.67;;;15.70;99.90;;;15.57;54.92;101846.31;4919275;28;97908;-48
2023/11/23 09:45:20;;;;;;;12.03;5.40;;;15.60;99.90;;;15.58;54.67;101840.06;4918140;28;99118;-50
2023/11/23 09:47:50;;;;;;;6.23;3.97;;;15.60;99.90;;;15.70;54.64;101831.66;4910657;28;102061;-56
2023/11/23 09:50:20;;;;;;;6.90;3.80;;;15.70;99.90;;;15.80;54.16;101826.00;4916827;28;99603;-54
2023/11/23 09:52:47;;;;;;;8.83;5.60;;;15.90;99.90;;;15.59;55.36;101823.22;4868700;28;100139;-56
2023/11/23 09:55:16;;;;;;;10.17;5.33;;;15.60;99.90;;;15.59;55.44;101823.22;4898957;28;97304;-51
2023/11/23 09:57:50;;;;;;;6.80;4.33;;;15.60;99.90;;;15.43;55.64;101827.34;4863792;28;101318;-48
2023/11/23 10:00:18;;;;;;;7.77;4.60;;;15.40;99.90;;;15.45;55.56;101826.38;4881864;28;103699;-54
2023/11/23 10:02:58;;;;;;;6.67;4.70;;;15.40;99.90;;;15.56;55.12;101833.94;4892297;28;98064;-52
2023/11/23 10:05:23;;;;;;;7.90;4.70;;;15.50;99.90;;;15.51;55.74;101812.00;4882424;28;97124;-51
2023/11/23 10:07:52;;;;;;;9.30;4.20;;;15.50;99.90;;;15.53;55.00;101807.47;4917446;28;97395;-54